PHWVO EHEH-EHEH

Flight info

Callsign PHWVO
Flight time 0h 3m
Altitude 7000
Route TRAFFIC PATTERN
Aircraft C172/L-SFG/C

Departure

Time 2026-04-30 14:57
Airport Eindhoven Airport (EHEH)

Arrival

Time 2026-04-30 15:00
Airport Eindhoven Airport (EHEH)
Time Latitude Longitude Altitude Speed Heading
2026-04-30 14:45 51.45779 5.37773 78 ft 0 kts 52°
2026-04-30 14:51 51.45780 5.37779 78 ft 2 kts 91°
2026-04-30 14:51 51.45770 5.37787 78 ft 4 kts 204°
2026-04-30 14:51 51.45673 5.37568 78 ft 16 kts 234°
2026-04-30 14:52 51.45618 5.37411 78 ft 12 kts 241°
2026-04-30 14:52 51.45510 5.37580 78 ft 19 kts 123°
2026-04-30 14:52 51.45414 5.37622 78 ft 19 kts 213°
2026-04-30 14:53 51.45125 5.37298 78 ft 22 kts 211°
2026-04-30 14:53 51.45015 5.37177 78 ft 16 kts 214°
2026-04-30 14:54 51.44801 5.36974 78 ft 6 kts 165°
2026-04-30 14:54 51.44780 5.37001 78 ft 0 kts 132°
2026-04-30 14:55 51.44775 5.37009 78 ft 5 kts 133°
2026-04-30 14:55 51.44741 5.37147 78 ft 2 kts 34°
2026-04-30 14:56 51.44777 5.37185 79 ft 25 kts 36°
2026-04-30 14:56 51.45376 5.37821 294 ft 65 kts 40°
2026-04-30 14:57 51.45736 5.38245 483 ft 64 kts 41°
2026-04-30 14:57 51.46454 5.38198 856 ft 91 kts 288°
2026-04-30 14:58 51.45925 5.36558 1031 ft 91 kts 204°
2026-04-30 14:58 51.45388 5.35922 978 ft 102 kts 203°
2026-04-30 14:58 51.44145 5.34649 788 ft 98 kts 207°
2026-04-30 14:59 51.43326 5.34801 515 ft 54 kts 105°
2026-04-30 15:00 51.43957 5.36261 164 ft 59 kts 45°
2026-04-30 15:00 51.44580 5.36960 81 ft 43 kts 40°
2026-04-30 15:01 51.45273 5.37723 267 ft 65 kts 34°
2026-04-30 15:01 51.45505 5.37926 441 ft 55 kts 35°
2026-04-30 15:01 51.46367 5.38246 827 ft 89 kts 298°
2026-04-30 15:02 51.46254 5.37233 899 ft 97 kts 219°
2026-04-30 15:02 51.45774 5.36497 993 ft 99 kts 210°
2026-04-30 15:03 51.44180 5.34557 1053 ft 90 kts 196°
2026-04-30 15:03 51.43053 5.33468 897 ft 104 kts 202°
2026-04-30 15:04 51.41955 5.32442 1030 ft 85 kts 195°
2026-04-30 15:04 51.40330 5.31270 1032 ft 83 kts 191°
2026-04-30 15:05 51.40624 5.32567 1012 ft 93 kts 27°
2026-04-30 15:06 51.41634 5.33653 758 ft 86 kts 51°
2026-04-30 15:06 51.42572 5.34752 500 ft 79 kts 42°
2026-04-30 15:07 51.43373 5.35606 322 ft 58 kts 46°
2026-04-30 15:07 51.44078 5.36394 122 ft 69 kts 44°
2026-04-30 15:08 51.44744 5.37149 79 ft 69 kts 37°
2026-04-30 15:08 51.46030 5.38526 605 ft 75 kts 34°
2026-04-30 15:09 51.46880 5.37909 886 ft 104 kts 267°
2026-04-30 15:09 51.45777 5.36286 881 ft 120 kts 199°
2026-04-30 15:10 51.44434 5.35011 729 ft 104 kts 202°
2026-04-30 15:11 51.43461 5.35641 296 ft 44 kts 57°
2026-04-30 15:11 51.44092 5.36414 122 ft 55 kts 45°
2026-04-30 15:12 51.45120 5.37558 305 ft 62 kts 49°
2026-04-30 15:13 51.45872 5.38426 597 ft 72 kts 41°
2026-04-30 15:14 51.45624 5.35986 862 ft 85 kts 197°
2026-04-30 15:14 51.44554 5.34859 962 ft 54 kts 190°
2026-04-30 15:16 51.43607 5.35853 264 ft 62 kts 54°
2026-04-30 15:17 51.44753 5.37045 78 ft 15 kts 313°